Time;durP1;ratioP1;P1;durP2;ratioP2;P2;SDS_P1;SDS_P2;PMS_P1;PMS_P2;Temp;Humidity;BMP_temperature;BMP_pressure;BME280_temperature;BME280_humidity;BME280_pressure;Samples;Min_cycle;Max_cycle;Signal;HPM_P1;HPM_P2
2021/07/19 00:01:55;;;;;;;19.42;12.78;;;;;;;17.11;71.69;100648.88;1817491;79;21046;-73
2021/07/19 00:04:21;;;;;;;18.52;13.18;;;;;;;17.07;71.77;100653.02;1817437;79;21148;-73
2021/07/19 00:06:47;;;;;;;19.57;12.63;;;;;;;17.04;71.91;100654.27;1817360;79;20999;-73
2021/07/19 00:09:14;;;;;;;19.98;12.07;;;;;;;16.96;71.98;100651.25;1816039;79;20987;-73
2021/07/19 00:11:40;;;;;;;21.80;13.53;;;;;;;16.95;72.08;100656.86;1775511;79;21043;-73
2021/07/19 00:14:06;;;;;;;20.90;13.38;;;;;;;16.92;72.20;100654.58;1773306;79;21527;-73
2021/07/19 00:16:32;;;;;;;19.25;14.20;;;;;;;16.89;72.30;100656.30;1768681;79;21990;-73
2021/07/19 00:18:58;;;;;;;22.10;14.28;;;;;;;16.86;72.39;100655.38;1825201;78;20971;-73
2021/07/19 00:21:24;;;;;;;21.48;14.03;;;;;;;16.85;72.50;100664.52;1825103;78;21067;-73
2021/07/19 00:23:50;;;;;;;19.32;13.88;;;;;;;16.81;72.60;100656.01;1792713;80;20963;-73
2021/07/19 00:26:19;;;;;;;21.12;14.65;;;;;;;16.80;72.68;100666.97;1824480;78;21014;-73
2021/07/19 00:28:44;;;;;;;19.15;13.50;;;;;;;16.77;72.78;100662.00;1777926;80;21263;-73
2021/07/19 00:31:10;;;;;;;20.40;13.93;;;;;;;16.74;72.87;100670.48;1791586;80;21042;-73
2021/07/19 00:33:37;;;;;;;20.20;13.78;;;;;;;16.70;72.95;100671.92;1811503;78;21068;-73
2021/07/19 00:36:03;;;;;;;22.90;14.00;;;;;;;16.66;73.05;100674.70;1794954;78;20967;-73
2021/07/19 00:38:29;;;;;;;20.77;14.45;;;;;;;16.63;73.11;100669.73;1786593;80;21021;-73
2021/07/19 00:40:55;;;;;;;20.20;13.13;;;;;;;16.61;73.20;100673.12;1810096;78;21844;-73
2021/07/19 00:43:21;;;;;;;21.73;13.65;;;;;;;16.59;73.30;100678.73;1764783;81;20987;-73
2021/07/19 00:45:47;;;;;;;18.20;13.20;;;;;;;16.59;73.38;100675.20;1808112;78;20974;-73
2021/07/19 00:48:13;;;;;;;19.15;13.58;;;;;;;16.57;73.46;100676.73;1795898;79;21042;-73
2021/07/19 00:50:40;;;;;;;21.37;14.80;;;;;;;16.59;73.55;100677.89;1823715;78;21086;-73
2021/07/19 00:53:09;;;;;;;19.00;13.98;;;;;;;16.59;73.62;100671.16;1768571;81;21494;-73
2021/07/19 00:55:39;;;;;;;21.90;14.47;;;;;;;16.59;73.69;100672.50;1768988;81;21029;-73
2021/07/19 00:58:06;;;;;;;22.05;14.28;;;;;;;16.54;73.76;100665.53;1825488;78;20999;-73
2021/07/19 01:00:36;;;;;;;22.10;14.93;;;;;;;16.59;73.85;100680.58;1768364;81;21061;-73
2021/07/19 01:03:04;;;;;;;23.67;16.10;;;;;;;16.60;73.92;100685.78;1768590;81;21550;-73
2021/07/19 01:05:30;;;;;;;23.18;15.25;;;;;;;16.59;74.01;100683.28;1768582;81;21240;-73
2021/07/19 01:07:56;;;;;;;27.32;15.45;;;;;;;16.59;74.08;100684.63;1826373;78;21006;-73
2021/07/19 01:10:22;;;;;;;20.02;14.58;;;;;;;16.63;74.14;100687.23;1769630;81;21074;-73
2021/07/19 01:12:51;;;;;;;22.02;15.05;;;;;;;16.66;74.16;100692.20;1823208;78;21026;-73
2021/07/19 01:15:17;;;;;;;;;;;;;;;16.70;74.22;100697.51;1772240;81;21061;-73
2021/07/19 01:17:43;;;;;;;23.55;14.98;;;;;;;16.74;74.24;100697.42;1769591;81;21157;-73
2021/07/19 01:20:10;;;;;;;21.90;15.80;;;;;;;16.75;74.29;100690.98;1826613;78;20990;-73
2021/07/19 01:22:54;;;;;;;18.37;13.22;;;;;;;16.77;74.33;100694.32;1769511;81;21057;-74
2021/07/19 01:26:06;;;;;;;18.67;13.93;;;;;;;16.75;74.37;100692.33;1823180;78;20999;-73
2021/07/19 01:28:43;;;;;;;24.05;14.47;;;;;;;16.72;74.45;100688.70;1769582;81;21049;-74
2021/07/19 01:31:13;;;;;;;26.90;16.75;;;;;;;16.72;74.54;100700.81;1769179;81;21133;-74
2021/07/19 01:33:46;;;;;;;19.73;14.98;;;;;;;16.71;74.58;100692.45;1798428;78;21015;-74
2021/07/19 01:36:15;;;;;;;21.10;15.32;;;;;;;16.68;74.62;100699.05;1769382;81;21033;-73
2021/07/19 01:38:42;;;;;;;18.20;13.43;;;;;;;16.66;74.67;100694.90;1769515;81;20998;-74
2021/07/19 01:41:08;;;;;;;21.23;14.53;;;;;;;16.62;74.75;100703.90;1826729;78;21006;-73
2021/07/19 01:43:34;;;;;;;22.58;15.28;;;;;;;16.60;74.80;100705.14;1769600;81;21144;-73
2021/07/19 01:46:01;;;;;;;20.85;14.83;;;;;;;16.56;74.85;100697.15;1769874;81;20994;-73
2021/07/19 01:48:29;;;;;;;21.05;15.75;;;;;;;16.52;74.90;100695.85;1826604;78;21502;-73
2021/07/19 01:50:55;;;;;;;25.43;16.00;;;;;;;16.47;74.98;100693.24;1769808;81;21018;-73
2021/07/19 01:53:22;;;;;;;22.22;15.43;;;;;;;16.41;75.00;100691.88;1769720;81;21073;-73
2021/07/19 01:55:48;;;;;;;23.02;15.83;;;;;;;16.39;75.11;100694.78;1826574;78;21529;-73
2021/07/19 01:58:14;;;;;;;21.97;15.20;;;;;;;16.38;75.18;100701.19;1769711;81;21448;-73
2021/07/19 02:00:40;;;;;;;22.62;15.25;;;;;;;16.34;75.24;100699.92;1811219;79;21757;-73
2021/07/19 02:03:06;;;;;;;21.73;14.03;;;;;;;16.29;75.31;100701.56;1810975;79;20995;-73
2021/07/19 02:05:32;;;;;;;25.60;15.38;;;;;;;16.24;75.38;100702.16;1767348;81;21277;-73
2021/07/19 02:08:00;;;;;;;26.23;16.65;;;;;;;16.26;75.45;100696.05;1813586;79;21022;-73
2021/07/19 02:10:26;;;;;;;33.53;19.20;;;;;;;16.28;75.50;100691.31;1767919;81;21475;-73
2021/07/19 02:12:55;;;;;;;29.37;17.82;;;;;;;16.27;75.53;100693.67;1813481;79;21030;-73
2021/07/19 02:15:21;;;;;;;23.70;14.30;;;;;;;16.27;75.59;100688.30;1813509;79;21050;-73
2021/07/19 02:17:54;;;;;;;28.32;15.45;;;;;;;16.27;75.63;100687.45;1813681;79;21492;-73
2021/07/19 02:20:20;;;;;;;23.22;15.72;;;;;;;16.25;75.70;100692.22;1768025;81;21707;-73
2021/07/19 02:22:46;;;;;;;22.02;14.07;;;;;;;16.24;75.75;100690.55;1813456;79;21011;-73
2021/07/19 02:25:13;;;;;;;24.85;13.38;;;;;;;16.23;75.77;100699.14;1788532;79;21483;-73
2021/07/19 02:27:42;;;;;;;19.10;14.10;;;;;;;16.24;75.83;100699.47;1813285;79;21046;-73
2021/07/19 02:30:12;;;;;;;18.95;13.35;;;;;;;16.23;75.85;100703.17;1813446;79;21059;-73
2021/07/19 02:32:42;;;;;;;21.93;14.20;;;;;;;16.22;75.91;100702.85;1813131;79;21100;-73
2021/07/19 02:35:08;;;;;;;;;;;;;;;16.21;75.94;100710.63;1770501;81;21010;-74
2021/07/19 02:37:38;;;;;;;16.75;12.05;;;;;;;16.21;76.01;100712.48;1813480;79;20182;-73
2021/07/19 02:40:05;;;;;;;;;;;;;;;16.23;76.04;100716.62;1744756;81;21050;-73
2021/07/19 02:42:33;;;;;;;16.50;11.60;;;;;;;16.28;76.07;100719.57;1813489;79;20478;-74
2021/07/19 02:45:00;;;;;;;15.13;11.10;;;;;;;16.37;76.09;100730.47;1788630;79;21242;-73
2021/07/19 02:47:26;;;;;;;14.73;10.98;;;;;;;16.47;76.07;100725.55;1813577;79;21106;-74
2021/07/19 02:49:53;;;;;;;16.65;10.65;;;;;;;16.58;76.07;100730.08;1768000;81;21502;-73
2021/07/19 02:52:21;;;;;;;16.12;10.58;;;;;;;16.64;76.11;100726.61;1813588;79;21475;-73
2021/07/19 02:54:47;;;;;;;13.62;10.30;;;;;;;16.73;76.12;100721.34;1788801;79;21007;-73
2021/07/19 02:57:13;;;;;;;19.45;10.60;;;;;;;16.82;76.13;100718.77;1813448;79;21185;-73
2021/07/19 02:59:39;;;;;;;15.65;10.18;;;;;;;16.87;76.13;100709.58;1755986;81;21481;-73
2021/07/19 03:02:05;;;;;;;62.45;38.48;;;;;;;16.91;76.15;100706.80;1765504;81;21003;-73
2021/07/19 03:04:31;;;;;;;29.07;17.45;;;;;;;16.91;76.17;100709.48;1765801;81;21428;-74
2021/07/19 03:06:59;;;;;;;19.95;11.33;;;;;;;16.92;76.16;100709.27;1765161;81;21562;-73
2021/07/19 03:09:25;;;;;;;18.87;10.78;;;;;;;16.91;76.19;100710.83;1765669;81;21160;-74
2021/07/19 03:11:51;;;;;;;15.35;10.53;;;;;;;16.86;76.20;100705.21;1765312;81;20991;-74
2021/07/19 03:14:21;;;;;;;11.88;9.15;;;;;;;16.84;76.26;100707.30;1765583;81;21008;-74
2021/07/19 03:16:49;;;;;;;14.18;9.48;;;;;;;16.84;76.28;100712.17;1765558;81;21499;-74
2021/07/19 03:19:17;;;;;;;15.45;9.65;;;;;;;16.85;76.26;100719.73;1739928;81;21336;-74
2021/07/19 03:21:43;;;;;;;12.93;9.53;;;;;;;16.85;76.26;100715.70;1765542;81;21143;-74
2021/07/19 03:24:13;;;;;;;16.40;9.90;;;;;;;16.87;76.23;100713.61;1765336;81;21483;-74
2021/07/19 03:26:41;;;;;;;14.75;10.00;;;;;;;16.89;76.21;100722.31;1765366;81;21137;-73
2021/07/19 03:29:07;;;;;;;13.65;9.08;;;;;;;16.90;76.23;100715.90;1739607;81;21491;-74
2021/07/19 03:31:34;;;;;;;17.45;10.00;;;;;;;16.91;76.20;100721.61;1765357;81;21061;-73
2021/07/19 03:34:00;;;;;;;15.13;10.25;;;;;;;16.95;76.20;100721.52;1765568;81;21127;-74
2021/07/19 03:36:31;;;;;;;19.73;10.30;;;;;;;16.96;76.17;100717.77;1765207;81;21026;-73
2021/07/19 03:38:58;;;;;;;12.50;10.10;;;;;;;16.99;76.17;100718.20;1765525;81;21486;-74
2021/07/19 03:41:24;;;;;;;16.02;10.30;;;;;;;17.04;76.16;100718.94;1765286;81;21006;-74
2021/07/19 03:43:50;;;;;;;15.48;9.78;;;;;;;17.08;76.12;100718.85;1765462;81;21035;-74
2021/07/19 03:46:18;;;;;;;12.82;10.05;;;;;;;17.13;76.08;100731.72;1765634;81;22185;-74
2021/07/19 03:48:44;;;;;;;13.43;9.40;;;;;;;17.14;76.06;100726.11;1765193;81;21448;-74
2021/07/19 03:51:10;;;;;;;16.97;9.53;;;;;;;17.16;76.07;100728.61;1765437;81;20995;-73
2021/07/19 03:53:36;;;;;;;20.80;10.80;;;;;;;17.18;76.01;100727.88;1765521;81;21065;-74
2021/07/19 03:56:03;;;;;;;15.72;9.80;;;;;;;17.17;76.01;100731.09;1791639;80;21019;-74
2021/07/19 03:58:33;;;;;;;15.95;9.15;;;;;;;17.18;75.98;100726.02;1768082;81;21149;-73
2021/07/19 04:01:00;;;;;;;16.20;9.70;;;;;;;17.20;75.97;100724.48;1810518;79;21048;-74
2021/07/19 04:03:31;;;;;;;17.82;10.40;;;;;;;17.22;75.99;100721.05;1767749;81;21057;-73
2021/07/19 04:06:04;;;;;;;16.67;10.05;;;;;;;17.23;75.99;100722.20;1812797;79;21062;-74
2021/07/19 04:08:31;;;;;;;13.53;9.50;;;;;;;17.24;75.96;100726.53;1811641;79;20987;-74
2021/07/19 04:10:56;;;;;;;17.15;9.85;;;;;;;17.24;75.95;100718.45;1813408;79;21725;-74
2021/07/19 04:13:22;;;;;;;17.00;9.95;;;;;;;17.24;75.91;100727.08;1768043;81;21033;-73
2021/07/19 04:15:50;;;;;;;14.45;9.60;;;;;;;17.26;75.88;100729.88;1813086;79;21062;-74
2021/07/19 04:18:19;;;;;;;15.13;10.03;;;;;;;17.26;75.90;100735.27;1768082;81;21587;-73
2021/07/19 04:20:45;;;;;;;15.63;9.90;;;;;;;17.25;75.87;100740.85;1813170;79;21019;-73
2021/07/19 04:23:11;;;;;;;20.77;11.25;;;;;;;17.24;75.84;100742.71;1813198;79;21779;-74
2021/07/19 04:25:38;;;;;;;21.33;9.85;;;;;;;17.25;75.83;100740.34;1812579;79;21476;-74
2021/07/19 04:28:05;;;;;;;19.57;9.88;;;;;;;17.27;75.84;100745.02;1767880;81;21001;-74
2021/07/19 04:30:34;;;;;;;17.55;9.65;;;;;;;17.28;75.86;100737.23;1813523;79;21027;-74
2021/07/19 04:33:01;;;;;;;20.40;11.27;;;;;;;17.31;75.87;100732.77;1813236;79;21043;-74
2021/07/19 04:35:27;;;;;;;16.45;9.98;;;;;;;17.32;75.88;100739.00;1767848;81;21883;-74
2021/07/19 04:37:53;;;;;;;18.35;9.80;;;;;;;17.35;75.90;100742.11;1813058;78;21019;-74
2021/07/19 04:40:20;;;;;;;18.95;10.32;;;;;;;17.40;75.92;100742.34;1767890;81;21074;-74
2021/07/19 04:42:46;;;;;;;21.93;10.38;;;;;;;17.43;75.90;100744.62;1813303;79;20999;-74
2021/07/19 04:45:20;;;;;;;25.15;10.95;;;;;;;17.44;75.91;100740.06;1813516;78;21035;-74
2021/07/19 04:47:47;;;;;;;18.27;9.38;;;;;;;17.42;75.94;100745.64;1813520;79;21106;-74
2021/07/19 04:50:14;;;;;;;24.98;11.45;;;;;;;17.40;75.94;100748.25;1813030;79;21554;-74
2021/07/19 04:52:41;;;;;;;33.18;12.68;;;;;;;17.36;75.94;100745.13;1767928;81;21033;-74
2021/07/19 04:55:11;;;;;;;16.00;10.20;;;;;;;17.35;75.95;100740.77;1813335;79;21039;-73
2021/07/19 04:57:38;;;;;;;15.78;10.38;;;;;;;17.37;75.90;100741.92;1813441;79;21425;-74
2021/07/19 05:00:06;;;;;;;11.78;9.53;;;;;;;17.36;75.90;100741.09;1813186;78;21130;-74
2021/07/19 05:02:32;;;;;;;16.93;8.83;;;;;;;17.37;75.87;100750.84;1767315;81;21062;-74
2021/07/19 05:04:58;;;;;;;14.23;8.80;;;;;;;17.38;75.85;100749.78;1767848;81;21026;-74
2021/07/19 05:07:25;;;;;;;16.52;9.45;;;;;;;17.36;75.81;100742.95;1813336;79;21007;-74
2021/07/19 05:09:51;;;;;;;13.40;8.20;;;;;;;17.37;75.82;100731.97;1767964;81;21054;-74
2021/07/19 05:12:21;;;;;;;14.05;8.45;;;;;;;17.39;75.78;100743.36;1812809;79;21528;-74
2021/07/19 05:14:47;;;;;;;19.57;8.48;;;;;;;17.40;75.77;100735.59;1813364;79;21030;-74
2021/07/19 05:17:14;;;;;;;19.25;8.58;;;;;;;17.42;75.72;100732.16;1813467;79;21448;-74
2021/07/19 05:19:41;;;;;;;15.45;8.05;;;;;;;17.51;75.71;100734.67;1813409;78;21003;-73
2021/07/19 05:22:14;;;;;;;15.20;8.70;;;;;;;17.55;75.68;100738.61;1788503;79;21090;-74
2021/07/19 05:24:41;;;;;;;14.05;8.53;;;;;;;17.58;75.64;100736.37;1767581;81;21119;-74
2021/07/19 05:27:08;;;;;;;21.55;8.23;;;;;;;17.62;75.59;100736.78;1813185;78;20980;-74
2021/07/19 05:29:34;;;;;;;12.98;8.28;;;;;;;17.63;75.56;100742.47;1767340;81;21042;-74
2021/07/19 05:32:02;;;;;;;17.52;8.18;;;;;;;17.67;75.56;100743.20;1813541;79;21531;-74
2021/07/19 05:34:28;;;;;;;15.45;8.48;;;;;;;17.73;75.50;100742.91;1813336;79;21058;-73
2021/07/19 05:36:54;;;;;;;16.42;7.22;;;;;;;17.77;75.39;100750.88;1767355;80;21205;-73
2021/07/19 05:39:20;;;;;;;13.43;6.87;;;;;;;17.78;75.36;100750.67;1813244;79;21022;-74
2021/07/19 05:41:46;;;;;;;11.80;6.45;;;;;;;17.72;75.28;100746.13;1769419;80;21487;-73
2021/07/19 05:44:13;;;;;;;15.95;7.83;;;;;;;17.63;75.20;100743.81;1779729;79;21402;-74
2021/07/19 05:46:39;;;;;;;12.55;6.87;;;;;;;17.57;75.14;100749.53;1801219;79;21063;-74
2021/07/19 05:49:06;;;;;;;13.65;8.10;;;;;;;17.48;75.07;100750.23;1774596;79;21154;-74
2021/07/19 05:51:32;;;;;;;15.10;7.08;;;;;;;17.44;75.04;100757.08;1775496;80;21524;-73
2021/07/19 05:54:00;;;;;;;12.03;7.85;;;;;;;17.44;74.99;100759.77;1769499;80;21104;-74
2021/07/19 05:56:26;;;;;;;19.48;7.00;;;;;;;17.43;74.95;100752.70;1774261;80;21020;-74
2021/07/19 05:58:52;;;;;;;10.50;6.12;;;;;;;17.41;74.92;100738.61;1773785;79;20987;-73
2021/07/19 06:01:18;;;;;;;11.20;6.60;;;;;;;17.41;74.88;100749.41;1809163;78;21583;-74
2021/07/19 06:03:44;;;;;;;12.98;6.47;;;;;;;17.42;74.83;100746.99;1781462;80;20969;-74
2021/07/19 06:06:10;;;;;;;15.53;7.00;;;;;;;17.46;74.76;100752.30;1784834;79;20991;-73
2021/07/19 06:08:36;;;;;;;11.83;6.05;;;;;;;17.48;74.73;100752.94;1783080;79;21003;-74
2021/07/19 06:11:02;;;;;;;13.45;6.33;;;;;;;17.50;74.68;100755.41;1781503;79;21031;-74
2021/07/19 06:13:28;;;;;;;16.55;6.70;;;;;;;17.47;74.63;100762.56;1776875;79;21457;-74
2021/07/19 06:15:54;;;;;;;15.08;6.45;;;;;;;17.45;74.60;100761.41;1777849;79;21002;-73
2021/07/19 06:18:20;;;;;;;20.35;6.08;;;;;;;17.44;74.60;100757.08;1783597;79;20972;-74
2021/07/19 06:20:46;;;;;;;15.83;6.03;;;;;;;17.41;74.59;100761.53;1784701;79;21038;-74
2021/07/19 06:23:12;;;;;;;12.63;6.72;;;;;;;17.39;74.56;100778.42;1787447;79;20896;-74
2021/07/19 06:25:42;;;;;;;14.07;6.28;;;;;;;17.36;74.56;100786.92;1787174;79;21133;-74
2021/07/19 06:28:08;;;;;;;15.75;5.65;;;;;;;17.28;74.58;100781.70;1781597;79;20993;-74
2021/07/19 06:30:34;;;;;;;14.65;5.67;;;;;;;17.21;74.58;100783.56;1785710;79;21026;-73
2021/07/19 06:33:00;;;;;;;14.03;4.80;;;;;;;17.15;74.60;100781.69;1780643;79;21043;-74
2021/07/19 07:40:17;;;;;;;17.65;6.17;;;;;;;21.18;72.43;100759.34;1912785;74;22153;-74
2021/07/19 07:42:43;;;;;;;14.70;5.70;;;;;;;21.16;72.11;100764.17;1853999;77;21038;-74
2021/07/19 07:45:10;;;;;;;8.78;4.35;;;;;;;21.10;71.47;100767.82;1847970;75;21503;-75
2021/07/19 07:47:37;;;;;;;11.75;4.62;;;;;;;21.13;70.81;100755.67;1847462;77;21018;-75
2021/07/19 07:50:04;;;;;;;14.95;5.15;;;;;;;21.23;70.29;100758.13;1852720;77;20980;-75
2021/07/19 07:52:30;;;;;;;14.30;4.53;;;;;;;21.25;69.99;100760.62;1813623;78;21547;-75
2021/07/19 07:54:56;;;;;;;15.78;5.47;;;;;;;21.36;69.61;100748.43;1788388;79;21676;-75
2021/07/19 07:57:22;;;;;;;14.53;5.22;;;;;;;21.56;69.20;100752.73;1790642;79;21715;-75
2021/07/19 07:59:49;;;;;;;15.98;5.17;;;;;;;21.44;68.84;100756.77;1807102;78;21037;-75
2021/07/19 08:02:15;;;;;;;13.15;5.03;;;;;;;21.34;68.68;100753.28;1811933;78;21065;-75
2021/07/19 08:04:41;;;;;;;12.73;5.25;;;;;;;21.27;68.36;100757.97;1820055;77;21450;-74
2021/07/19 08:07:07;;;;;;;16.02;5.92;;;;;;;21.30;67.97;100758.86;1819416;78;21016;-74
2021/07/19 08:09:33;;;;;;;16.10;5.90;;;;;;;21.34;67.57;100760.06;1814655;78;21527;-75
2021/07/19 08:11:59;;;;;;;16.05;5.30;;;;;;;21.44;67.26;100754.06;1815424;78;21039;-75
2021/07/19 08:14:25;;;;;;;14.05;5.45;;;;;;;21.61;66.88;100752.84;1816485;78;21435;-75
2021/07/19 08:16:51;;;;;;;12.63;5.40;;;;;;;21.63;66.43;100754.81;1812763;78;20961;-75
2021/07/19 08:19:17;;;;;;;16.30;5.12;;;;;;;21.60;65.94;100748.50;1814122;78;21020;-75
2021/07/19 08:21:44;;;;;;;12.82;5.33;;;;;;;21.43;65.58;100750.52;1812887;77;21574;-75
2021/07/19 08:24:10;;;;;;;12.73;5.83;;;;;;;21.36;65.30;100747.08;1818252;78;21016;-75
2021/07/19 08:26:36;;;;;;;15.65;6.03;;;;;;;21.30;65.05;100748.53;1818607;78;21059;-75
2021/07/19 08:29:03;;;;;;;18.60;5.30;;;;;;;21.18;64.81;100755.27;1813531;78;21482;-74
2021/07/19 08:31:29;;;;;;;13.40;4.83;;;;;;;21.09;64.61;100756.63;1802815;78;20968;-75
2021/07/19 08:33:56;;;;;;;15.30;5.25;;;;;;;20.99;64.38;100755.00;1803892;78;21489;-75
2021/07/19 08:36:22;;;;;;;12.37;5.65;;;;;;;20.98;64.26;100756.05;1788546;78;20996;-79
2021/07/19 08:38:48;;;;;;;17.82;5.62;;;;;;;21.00;64.11;100758.55;1791344;78;21613;-79
2021/07/19 08:41:15;;;;;;;12.50;5.47;;;;;;;21.02;64.01;100754.54;1772215;79;21519;-79
2021/07/19 08:43:42;;;;;;;16.15;5.58;;;;;;;21.03;63.82;100760.27;1769543;79;21000;-78
2021/07/19 08:46:09;;;;;;;13.30;5.05;;;;;;;20.97;63.77;100759.81;1763430;80;21427;-78
2021/07/19 08:48:35;;;;;;;14.05;5.87;;;;;;;20.96;63.68;100760.05;1766019;80;21038;-79
2021/07/19 08:51:01;;;;;;;15.53;5.90;;;;;;;20.99;63.67;100759.59;1771397;79;21521;-80
2021/07/19 08:53:28;;;;;;;19.10;5.78;;;;;;;20.89;63.52;100752.84;1767111;79;21014;-79
2021/07/19 08:55:54;;;;;;;13.08;5.60;;;;;;;20.80;63.44;100758.26;1762640;80;21051;-79
2021/07/19 08:58:20;;;;;;;16.52;5.55;;;;;;;20.74;63.38;100767.84;1766039;79;21524;-79
2021/07/19 09:00:46;;;;;;;17.30;5.72;;;;;;;20.62;63.26;100753.41;1770199;80;21015;-79
2021/07/19 09:03:12;;;;;;;11.83;5.72;;;;;;;20.57;63.23;100758.66;1775239;79;21013;-79
2021/07/19 09:05:38;;;;;;;13.72;5.55;;;;;;;20.53;63.15;100758.81;1774253;79;21055;-78
2021/07/19 09:08:05;;;;;;;14.63;5.75;;;;;;;20.47;63.12;100757.02;1773198;79;21057;-78
2021/07/19 09:10:32;;;;;;;14.80;5.40;;;;;;;20.37;62.96;100761.61;1772862;79;21132;-78
2021/07/19 09:13:01;;;;;;;18.25;5.95;;;;;;;20.24;62.83;100764.41;1763785;80;21003;-78
2021/07/19 09:15:33;;;;;;;10.93;5.03;;;;;;;20.19;62.73;100761.55;1762101;80;23056;-78
2021/07/19 09:18:00;;;;;;;13.62;5.65;;;;;;;20.12;62.54;100762.14;1771285;80;21474;-78
2021/07/19 09:20:30;;;;;;;15.55;6.10;;;;;;;20.05;62.54;100766.27;1771198;80;21015;-78
2021/07/19 09:22:56;;;;;;;13.43;5.62;;;;;;;20.09;62.58;100766.66;1766128;79;21286;-78
2021/07/19 09:25:22;;;;;;;14.78;5.15;;;;;;;20.16;62.53;100769.58;1769339;79;21053;-79
2021/07/19 09:28:11;;;;;;;10.80;5.50;;;;;;;20.27;62.41;100770.23;1771014;79;21024;-78
2021/07/19 09:30:45;;;;;;;13.58;5.67;;;;;;;20.27;62.16;100764.81;1768618;79;21008;-78
2021/07/19 09:33:17;;;;;;;13.62;5.25;;;;;;;20.20;62.01;100768.61;1771021;79;21055;-79
2021/07/19 09:35:46;;;;;;;15.30;5.60;;;;;;;20.15;61.88;100780.66;1788924;79;21602;-78
2021/07/19 09:38:15;;;;;;;11.95;5.22;;;;;;;20.09;61.81;100780.20;1789708;78;21457;-78
2021/07/19 09:40:42;;;;;;;16.77;5.15;;;;;;;20.09;61.70;100781.00;1756982;79;21063;-78
2021/07/19 09:43:16;;;;;;;13.08;5.95;;;;;;;20.07;61.52;100782.28;1767090;80;21525;-78
2021/07/19 09:45:42;;;;;;;16.73;5.70;;;;;;;20.06;61.35;100775.20;1777783;80;20985;-79
2021/07/19 09:48:09;;;;;;;12.60;5.40;;;;;;;20.12;61.27;100769.75;1784563;80;21118;-78
2021/07/19 09:50:50;;;;;;;15.55;6.25;;;;;;;20.18;61.15;100773.43;1782411;80;21024;-79
2021/07/19 09:53:15;;;;;;;13.35;5.33;;;;;;;20.25;61.04;100780.45;1778072;80;21043;-78
2021/07/19 09:55:41;;;;;;;20.82;6.30;;;;;;;20.29;60.86;100774.08;1738621;80;21037;-78
2021/07/19 09:58:07;;;;;;;12.78;5.72;;;;;;;20.32;60.61;100773.11;1748586;81;21042;-78
2021/07/19 10:00:34;;;;;;;8.73;5.28;;;;;;;20.42;60.50;100773.94;1748630;80;21653;-78
2021/07/19 10:03:12;;;;;;;12.53;5.65;;;;;;;20.51;60.26;100776.67;1772738;78;21526;-78
2021/07/19 10:05:38;;;;;;;13.58;6.05;;;;;;;20.56;60.12;100770.55;1788492;78;21539;-79
2021/07/19 10:08:05;;;;;;;13.38;5.70;;;;;;;20.60;59.94;100774.47;1749247;80;21056;-79
2021/07/19 10:10:36;;;;;;;14.10;5.50;;;;;;;20.63;59.85;100770.78;1752962;79;21103;-79
2021/07/19 10:13:06;;;;;;;14.33;5.40;;;;;;;20.73;59.80;100771.59;1772372;80;21176;-79
2021/07/19 10:15:33;;;;;;;9.10;5.67;;;;;;;20.70;59.66;100772.05;1757582;79;21044;-79
2021/07/19 10:18:11;;;;;;;10.90;6.12;;;;;;;20.71;59.55;100766.94;1764707;79;21096;-78
2021/07/19 10:20:35;;;;;;;12.95;5.97;;;;;;;20.62;59.34;100767.76;1782080;79;21014;-79
2021/07/19 10:23:03;;;;;;;13.60;7.35;;;;;;;20.63;59.24;100772.66;1764775;80;21520;-79
2021/07/19 10:25:29;;;;;;;13.72;7.05;;;;;;;20.59;59.05;100770.09;1757186;80;21327;-79
2021/07/19 10:27:56;;;;;;;12.43;7.08;;;;;;;20.56;58.97;100771.91;1767084;80;21607;-79
2021/07/19 10:30:22;;;;;;;16.12;7.08;;;;;;;20.48;58.81;100773.58;1763763;80;20989;-86
2021/07/19 10:32:48;;;;;;;14.00;7.65;;;;;;;20.43;58.70;100771.54;1786770;79;21033;-84
2021/07/19 10:35:15;;;;;;;13.70;7.35;;;;;;;20.50;58.64;100771.45;1775408;79;21106;-82
2021/07/19 10:37:57;;;;;;;13.88;8.15;;;;;;;20.48;58.47;100770.88;1774364;80;21749;-81
2021/07/19 10:40:28;;;;;;;13.65;7.20;;;;;;;20.56;58.48;100777.33;1771365;79;21049;-82
2021/07/19 10:43:09;;;;;;;16.50;8.58;;;;;;;20.64;58.41;100771.61;1776568;79;20993;-82
2021/07/19 10:45:50;;;;;;;18.32;8.98;;;;;;;20.75;58.34;100774.40;1773650;79;21019;-81
2021/07/19 10:48:31;;;;;;;11.65;8.00;;;;;;;20.87;58.28;100778.50;1796136;79;20998;-82
2021/07/19 10:51:02;;;;;;;13.75;8.20;;;;;;;21.02;58.17;100773.52;1785322;80;21131;-82
2021/07/19 10:53:31;;;;;;;12.15;8.20;;;;;;;21.20;58.06;100774.05;1766500;80;21038;-81
2021/07/19 10:56:09;;;;;;;13.50;7.97;;;;;;;21.19;57.74;100766.42;1771928;80;20998;-78
2021/07/19 10:58:42;;;;;;;12.53;8.73;;;;;;;21.14;57.48;100766.31;1771351;80;21474;-79
2021/07/19 11:01:29;;;;;;;16.35;8.73;;;;;;;20.96;56.97;100770.38;1771198;81;21065;-78
2021/07/19 11:03:57;;;;;;;11.93;8.60;;;;;;;20.78;56.67;100771.23;1779714;79;21515;-78
2021/07/19 11:06:47;;;;;;;14.70;8.98;;;;;;;20.58;56.46;100765.75;1801098;79;21022;-78
2021/07/19 11:09:09;;;;;;;12.73;8.40;;;;;;;20.47;56.41;100757.84;1795138;79;21005;-78
2021/07/19 11:11:42;;;;;;;11.55;7.65;;;;;;;20.41;56.48;100760.91;1811143;78;21041;-78
2021/07/19 11:14:20;;;;;;;15.88;8.65;;;;;;;20.48;56.57;100762.74;1813578;78;21100;-78
2021/07/19 11:16:50;;;;;;;12.60;8.30;;;;;;;20.79;56.57;100758.50;1813566;78;21904;-79
2021/07/19 11:19:17;;;;;;;9.63;7.47;;;;;;;21.16;56.28;100756.05;1793658;80;20993;-79
2021/07/19 11:21:44;;;;;;;14.93;7.67;;;;;;;21.17;55.74;100744.14;1797395;78;21031;-79
2021/07/19 11:24:19;;;;;;;11.83;7.10;;;;;;;21.41;55.81;100744.50;1790040;79;21089;-79
2021/07/19 11:26:58;;;;;;;10.95;7.92;;;;;;;21.64;55.59;100743.70;1785943;80;21059;-79
2021/07/19 11:29:33;;;;;;;12.28;7.65;;;;;;;21.75;55.33;100743.42;1796181;78;21850;-79
2021/07/19 11:32:10;;;;;;;11.80;7.15;;;;;;;21.67;55.28;100741.08;1787462;80;21577;-79
2021/07/19 11:34:39;;;;;;;11.45;7.72;;;;;;;21.57;55.10;100739.47;1787097;80;21483;-78
2021/07/19 11:37:06;;;;;;;11.20;7.40;;;;;;;21.68;55.14;100734.56;1778904;78;21470;-79
2021/07/19 11:39:49;;;;;;;17.90;7.25;;;;;;;22.02;55.12;100731.09;1769964;80;21007;-78
2021/07/19 11:42:17;;;;;;;13.65;7.05;;;;;;;22.31;54.86;100728.75;1748339;82;21529;-79
2021/07/19 11:44:43;;;;;;;14.85;7.15;;;;;;;22.59;54.56;100732.61;1764999;81;21501;-78
2021/07/19 11:47:09;;;;;;;12.20;6.35;;;;;;;22.71;54.36;100725.27;1784843;80;21014;-78
2021/07/19 11:49:36;;;;;;;9.75;6.87;;;;;;;22.60;53.93;100734.24;1788766;80;21328;-78
2021/07/19 11:52:08;;;;;;;15.03;6.22;;;;;;;22.38;53.84;100724.53;1787472;80;21404;-78
2021/07/19 11:54:31;;;;;;;18.77;6.35;;;;;;;22.19;53.65;100733.39;1786207;80;21543;-83
2021/07/19 11:56:57;;;;;;;14.85;6.33;;;;;;;21.93;53.31;100724.34;1787285;80;21028;-84
2021/07/19 11:59:24;;;;;;;12.82;6.40;;;;;;;21.67;53.18;100730.22;1785847;78;21552;-84
2021/07/19 12:01:59;;;;;;;15.05;6.58;;;;;;;21.56;53.18;100722.88;1766986;81;21008;-84
2021/07/19 12:04:42;;;;;;;12.78;6.67;;;;;;;21.72;53.29;100719.47;1762959;79;21455;-84
2021/07/19 12:07:09;;;;;;;9.25;6.08;;;;;;;21.89;53.22;100714.98;1754270;81;22390;-84
2021/07/19 12:09:36;;;;;;;11.30;5.83;;;;;;;21.92;53.13;100725.40;1754316;81;20995;-84
2021/07/19 12:12:03;;;;;;;10.30;6.05;;;;;;;21.75;52.88;100721.70;1753873;81;21085;-85
2021/07/19 12:14:30;;;;;;;12.13;6.17;;;;;;;21.60;52.86;100714.05;1754061;81;20994;-84
2021/07/19 12:16:56;;;;;;;11.93;6.25;;;;;;;21.53;52.84;100715.21;1759911;81;21471;-84
2021/07/19 12:19:22;;;;;;;14.87;6.22;;;;;;;21.47;52.82;100711.53;1759810;81;21578;-84
2021/07/19 12:21:57;;;;;;;13.35;5.50;;;;;;;21.37;52.76;100713.46;1757074;80;21006;-84
2021/07/19 12:24:26;;;;;;;11.38;5.85;;;;;;;21.40;52.80;100708.92;1783195;80;21024;-84